地図

経路データ

SID SEASON NUMBER BASIN SUBBASIN NAME ISO_TIME NATURE LAT LON WMO_WIND WMO_PRES WMO_AGENCY TRACK_TYPE DIST2LAND LANDFALL IFLAG USA_AGENCY USA_ATCF_ID USA_LAT USA_LON USA_RECORD USA_STATUS USA_WIND USA_PRES USA_SSHS USA_R34_NE USA_R34_SE USA_R34_SW USA_R34_NW USA_R50_NE USA_R50_SE USA_R50_SW USA_R50_NW USA_R64_NE USA_R64_SE USA_R64_SW USA_R64_NW USA_POCI USA_ROCI USA_RMW USA_EYE TOKYO_LAT TOKYO_LON TOKYO_GRADE TOKYO_WIND TOKYO_PRES TOKYO_R50_DIR TOKYO_R50_LONG TOKYO_R50_SHORT TOKYO_R30_DIR TOKYO_R30_LONG TOKYO_R30_SHORT TOKYO_LAND CMA_LAT CMA_LON CMA_CAT CMA_WIND CMA_PRES HKO_LAT HKO_LON HKO_CAT HKO_WIND HKO_PRES NEWDELHI_LAT NEWDELHI_LON NEWDELHI_GRADE NEWDELHI_WIND NEWDELHI_PRES NEWDELHI_CI NEWDELHI_DP NEWDELHI_POCI REUNION_LAT REUNION_LON REUNION_TYPE REUNION_WIND REUNION_PRES REUNION_TNUM REUNION_CI REUNION_RMW REUNION_R34_NE REUNION_R34_SE REUNION_R34_SW REUNION_R34_NW REUNION_R50_NE REUNION_R50_SE REUNION_R50_SW REUNION_R50_NW REUNION_R64_NE REUNION_R64_SE REUNION_R64_SW REUNION_R64_NW BOM_LAT BOM_LON BOM_TYPE BOM_WIND BOM_PRES BOM_TNUM BOM_CI BOM_RMW BOM_R34_NE BOM_R34_SE BOM_R34_SW BOM_R34_NW BOM_R50_NE BOM_R50_SE BOM_R50_SW BOM_R50_NW BOM_R64_NE BOM_R64_SE BOM_R64_SW BOM_R64_NW BOM_ROCI BOM_POCI BOM_EYE BOM_POS_METHOD BOM_PRES_METHOD NADI_LAT NADI_LON NADI_CAT NADI_WIND NADI_PRES WELLINGTON_LAT WELLINGTON_LON WELLINGTON_WIND WELLINGTON_PRES DS824_LAT DS824_LON DS824_STAGE DS824_WIND DS824_PRES TD9636_LAT TD9636_LON TD9636_STAGE TD9636_WIND TD9636_PRES TD9635_LAT TD9635_LON TD9635_WIND TD9635_PRES TD9635_ROCI NEUMANN_LAT NEUMANN_LON NEUMANN_CLASS NEUMANN_WIND NEUMANN_PRES MLC_LAT MLC_LON MLC_CLASS MLC_WIND MLC_PRES USA_GUST BOM_GUST BOM_GUST_PER REUNION_GUST REUNION_GUST_PER USA_SEAHGT USA_SEARAD_NE USA_SEARAD_SE USA_SEARAD_SW USA_SEARAD_NW STORM_SPEED STORM_DIR
1980137N04158 1980 37 WP MM FORREST 1980-05-16 00:00:00 NR 4.00000 158.000 main 1055 1048 __________O___ -1 4.00000 158.000 0 3 302
1980137N04158 1980 37 WP MM FORREST 1980-05-16 03:00:00 NR 4.07815 157.872 main 1057 1050 __________P___ -1 4.07815 157.872 0 3 302
1980137N04158 1980 37 WP MM FORREST 1980-05-16 06:00:00 NR 4.15502 157.745 main 1052 1046 __________P___ -1 4.15502 157.745 0 3 301
1980137N04158 1980 37 WP MM FORREST 1980-05-16 09:00:00 NR 4.22939 157.621 main 1046 1046 __________P___ -1 4.22939 157.621 0 3 301
1980137N04158 1980 37 WP MM FORREST 1980-05-16 12:00:00 NR 4.30000 157.500 main 1048 1042 __________O___ -1 4.30000 157.500 0 3 300
1980137N04158 1980 37 WP MM FORREST 1980-05-16 15:00:00 NR 4.36686 157.383 main 1051 1045 __________P___ -1 4.36686 157.383 0 3 300
1980137N04158 1980 37 WP MM FORREST 1980-05-16 18:00:00 NR 4.43498 157.265 main 1045 1038 __________P___ -1 4.43498 157.265 0 3 301
1980137N04158 1980 37 WP MM FORREST 1980-05-16 21:00:00 NR 4.51060 157.139 main 1042 1042 __________P___ -1 4.51060 157.139 0 3 302
1980137N04158 1980 37 WP MM FORREST 1980-05-17 00:00:00 NR 4.60000 157.000 main 1045 1039 __________O___ -1 4.60000 157.000 0 4 304
1980137N04158 1980 37 WP MM FORREST 1980-05-17 03:00:00 NR 4.72284 156.823 main 1043 1043 __________P___ -1 4.72284 156.823 0 4 305
1980137N04158 1980 37 WP MM FORREST 1980-05-17 06:00:00 NR 4.85754 156.635 main 1051 1045 __________P___ -1 4.85754 156.635 0 5 306
1980137N04158 1980 37 WP MM FORREST 1980-05-17 09:00:00 NR 4.98847 156.454 main 1054 1049 __________P___ -1 4.98847 156.454 0 4 306
1980137N04158 1980 37 WP MM FORREST 1980-05-17 12:00:00 NR 5.10000 156.300 main 1053 1047 __________O___ -1 5.10000 156.300 0 3 305
1980137N04158 1980 37 WP MM FORREST 1980-05-17 15:00:00 NR 5.15119 156.221 main 1057 1057 __________P___ -1 5.15119 156.221 0 2 301
1980137N04158 1980 37 WP MM FORREST 1980-05-17 18:00:00 NR 5.18491 156.165 main 1057 1051 __________P___ -1 5.18491 156.165 0 1 302
1980137N04158 1980 37 WP MM FORREST 1980-05-17 21:00:00 NR 5.22618 156.102 main 1051 1051 __________P___ -1 5.22618 156.102 0 2 306
1980137N04158 1980 37 WP MM FORREST 1980-05-18 00:00:00 NR 5.30000 156.000 main 1056 1050 __________O___ -1 5.30000 156.000 0 4 307
1980137N04158 1980 37 WP MM FORREST 1980-05-18 03:00:00 NR 5.45132 155.802 main 1065 1060 __________P___ -1 5.45132 155.802 0 5 308
1980137N04158 1980 37 WP MM FORREST 1980-05-18 06:00:00 NR 5.63511 155.565 main 1066 1066 __________P___ -1 5.63511 155.565 0 6 308
1980137N04158 1980 37 WP MM FORREST 1980-05-18 09:00:00 NR 5.82633 155.321 main 1070 1070 __________P___ -1 5.82633 155.321 0 6 308
1980137N04158 1980 37 WP MM FORREST 1980-05-18 12:00:00 NR 6.00000 155.100 main 1080 1080 __________O___ -1 6.00000 155.100 0 4 311
1980137N04158 1980 37 WP MM FORREST 1980-05-18 15:00:00 NR 6.12142 154.983 main 1086 1086 __________P___ -1 6.12142 154.983 0 3 316
1980137N04158 1980 37 WP MM FORREST 1980-05-18 18:00:00 NR 6.22228 154.887 main 1091 1091 __________P___ -1 6.22228 154.887 0 3 312
1980137N04158 1980 37 WP MM FORREST 1980-05-18 21:00:00 NR 6.31201 154.773 main 1097 1093 __________P___ -1 6.31201 154.773 0 3 309
1980137N04158 1980 37 WP MM FORREST 1980-05-19 00:00:00 TS 6.41250 154.650 1008 tokyo main 1103 1095 OOO______OO___ jtwc_wp WP051980 6.40000 154.600 20 -1 6.40000 154.800 2 1008 0 0 0 6.50000 154.800 0 19 1007 6.40000 154.600 TC 20 6.40000 154.600 1 20 5 290
1980137N04158 1980 37 WP MM FORREST 1980-05-19 03:00:00 TS 6.49550 154.275 main 1098 1087 PPP______PP___ WP051980 6.57006 154.248 20 -1 6.39008 154.395 2 1007 0 0 6.44279 154.097 0 19 1006 6.57006 154.248 TC 20 6.50000 154.331 1 21 8 281
1980137N04158 1980 37 WP MM FORREST 1980-05-19 06:00:00 TS 6.56249 153.868 1006 tokyo main 1094 1081 OOO______OP___ jtwc_wp WP051980 6.70000 153.900 20 -1 6.40000 154.000 2 1006 0 0 0 6.40000 153.500 0 19 1005 6.70000 153.900 TC 20 6.59998 153.997 1 22 8 278
1980137N04158 1980 37 WP MM FORREST 1980-05-19 09:00:00 TS 6.61143 153.483 main 1081 1073 PPP______PP___ WP051980 6.76496 153.557 22 -1 6.44243 153.615 2 1006 0 0 6.38485 153.070 0 19 1005 6.76496 153.557 TC 22 6.69996 153.615 1 23 8 277
1980137N04158 1980 37 WP MM FORREST 1980-05-19 12:00:00 TS 6.66000 153.100 1006 tokyo main 1081 1072 OOO______OO___ jtwc_wp WP051980 6.80000 153.200 25 -1 6.50000 153.200 2 1006 0 0 0 6.40000 152.700 0 19 1005 6.80000 153.200 TC 25 6.80000 153.200 1 25 8 277
1980137N04158 1980 37 WP MM FORREST 1980-05-19 15:00:00 TS 6.70614 152.685 main 1072 1066 PPP______PP___ WP051980 6.83494 152.822 25 -1 6.54251 152.707 2 1006 0 0 6.43503 152.235 0 24 1003 6.83494 152.822 TC 25 6.88325 152.839 1 26 9 278
1980137N04158 1980 37 WP MM FORREST 1980-05-19 18:00:00 TS 6.77383 152.248 1006 tokyo main 1074 1070 OOO______OP___ jtwc_wp WP051980 6.90000 152.400 25 -1 6.60000 152.200 2 1006 0 0 0 6.50000 151.800 1 29 1002 6.90000 152.400 TC 25 6.96916 152.442 1 27 9 281
1980137N04158 1980 37 WP MM FORREST 1980-05-19 21:00:00 TS 6.86998 151.833 main 1080 1078 PPP______PP___ WP051980 7.04232 151.960 27 -1 6.65485 151.772 2 1005 0 0 6.53989 151.500 1 29 1002 7.04232 151.960 TC 27 7.07052 151.973 1 28 9 285
1980137N04158 1980 37 WP MM FORREST 1980-05-20 00:00:00 TS 7.01429 151.348 1004 tokyo main 1087 1087 OOOO_____OO___ jtwc_wp WP051980 7.20000 151.400 30 -1 6.80000 151.300 2 1004 0 0 0 6.70000 151.200 1 29 1002 6.90000 151.500 TD 30 1004 7.20000 151.400 TC 30 7.20000 151.400 1 30 12 288
1980137N04158 1980 37 WP MM FORREST 1980-05-20 03:00:00 TS 7.23588 150.722 main 1104 1104 PPPP_____PP___ WP051980 7.27753 150.652 30 -1 7.12738 150.710 2 1002 0 0 7.12732 150.825 1 29 1001 7.27248 150.905 TD 30 1002 7.27753 150.652 TC 30 7.35135 150.678 1 31 14 290
1980137N04158 1980 37 WP MM FORREST 1980-05-20 06:00:00 TS 7.50140 149.983 35 1000 tokyo main 1113 1111 OOOO_____OP___ jtwc_wp WP051980 7.40000 149.800 30 -1 7.50000 150.000 3 35 1000 0 9 75 75 0 7.60000 150.300 1 29 1001 7.60000 150.200 TD 30 1000 7.40000 149.800 TC 30 7.53305 149.854 1 32 16 289
1980137N04158 1980 37 WP MM FORREST 1980-05-20 09:00:00 TS 7.76136 149.155 main 1127 1121 PPPP_____PP___ WP051980 7.66242 148.950 32 -1 7.75004 149.172 3 35 1000 0 9 75 75 7.88755 149.560 1 29 1000 7.85762 149.322 TD 32 1000 7.66242 148.950 TC 32 7.74813 148.978 1 33 18 288
1980137N04158 1980 37 WP MM FORREST 1980-05-20 12:00:00 TS 8.03333 148.283 35 1000 tokyo main 1136 1135 OOOO_____OO___ jtwc_wp WP051980 8.00000 148.100 35 0 8.00000 148.300 3 35 1000 0 9 75 75 0 8.10000 148.700 1 29 1000 8.10000 148.400 TS 35 1000 8.00000 148.100 TC 35 8.00000 148.100 2 35 18 289
1980137N04158 1980 37 WP MM FORREST 1980-05-20 15:00:00 TS 8.34317 147.471 main 1165 1165 PPPP_____PP___ WP051980 8.34979 147.292 37 0 8.34970 147.507 3 37 999 0 9 75 75 8.28496 147.842 1 33 1000 8.39965 147.600 TS 35 1000 8.34979 147.292 TC 37 8.32512 147.289 2 36 17 291
1980137N04158 1980 37 WP MM FORREST 1980-05-20 18:00:00 TS 8.66322 146.664 40 998 tokyo main 1210 1210 OOOO_____OP___ jtwc_wp WP051980 8.70000 146.500 40 0 8.70000 146.700 3 40 998 0 9 75 75 0 8.50000 147.000 2 38 1000 8.70000 146.800 TS 35 1000 8.70000 146.500 TC 40 8.67933 146.486 2 37 17 292
1980137N04158 1980 37 WP MM FORREST 1980-05-20 21:00:00 TS 8.99638 145.836 main 1246 1246 PPPP_____PP___ WP051980 9.03737 145.693 40 0 9.00254 145.793 3 40 997 0 9 75 75 8.87956 146.265 2 38 999 9.00259 145.885 TS 35 1000 9.03737 145.693 TC 40 9.01888 145.689 2 38 17 290
1980137N04158 1980 37 WP MM FORREST 1980-05-21 00:00:00 TS 9.25000 145.017 40 996 tokyo main 1289 1289 OOOO_____OO___ jtwc_wp WP051980 9.30000 144.900 40 0 9.20000 144.900 3 40 996 0 9 75 75 0 9.20000 145.500 2 38 999 9.20000 145.000 TS 35 1000 9.30000 144.900 TC 40 9.30000 144.900 2 40 16 282
1980137N04158 1980 37 WP MM FORREST 1980-05-21 03:00:00 TS 9.32699 144.226 main 1304 1304 PPPP_____PP___ WP051980 9.42974 144.150 42 0 9.22974 144.120 3 42 996 0 9 75 75 9.24514 144.557 2 38 999 9.17967 144.270 TS 37 1000 9.42974 144.150 TC 42 9.44790 144.113 2 41 15 273
1980137N04158 1980 37 WP MM FORREST 1980-05-21 06:00:00 TS 9.33947 143.456 45 996 tokyo main 1322 1322 OOOO_____OP___ jtwc_wp WP051980 9.50000 143.400 45 0 9.20000 143.400 3 45 996 0 9 75 75 0 9.20000 143.600 2 38 999 9.10000 143.600 TS 40 1000 9.50000 143.400 TC 45 9.53680 143.334 2 42 15 272
1980137N04158 1980 37 WP MM FORREST 1980-05-21 09:00:00 TS 9.37683 142.702 main 1329 1306 PPPP_____PP___ WP051980 9.58487 142.607 45 0 9.20473 142.707 3 40 996 0 9 75 75 9.19695 142.807 2 38 999 9.08223 142.922 TS 40 1000 9.58487 142.607 TC 45 9.60730 142.563 2 43 15 275
1980137N04158 1980 37 WP MM FORREST 1980-05-21 12:00:00 TS 9.48333 141.933 35 996 tokyo main 1309 1302 OOOO_____OO___ jtwc_wp WP051980 9.70000 141.800 45 0 9.30000 142.000 3 35 996 0 9 75 75 0 9.30000 142.000 2 38 999 9.20000 142.200 TS 40 1000 9.70000 141.800 TC 45 9.70000 141.800 2 45 16 283
1980137N04158 1980 37 WP MM FORREST 1980-05-21 15:00:00 TS 9.73488 141.103 main 1306 1302 PPPP_____PP___ WP051980 9.88491 140.985 45 0 9.55481 141.230 3 35 996 0 9 75 75 9.62014 141.008 2 38 999 9.57745 141.373 TS 40 1000 9.88491 140.985 TC 45 9.88704 141.035 2 45 17 288
1980137N04158 1980 37 WP MM FORREST 1980-05-21 18:00:00 TS 10.0332 140.263 35 996 tokyo main 1304 1298 OOOO_____OP___ jtwc_wp WP051980 10.1000 140.200 45 0 9.90000 140.400 3 35 996 0 9 75 75 0 10.0000 140.000 2 38 999 10.0000 140.500 TS 40 1000 10.1000 140.200 TC 45 10.0994 140.278 2 45 17 289
1980137N04158 1980 37 WP MM FORREST 1980-05-21 21:00:00 TS 10.2936 139.440 main 1302 1296 PPPP_____PP___ WP051980 10.3073 139.477 45 0 10.2952 139.463 3 37 996 0 9 87 67 10.2950 139.060 2 38 999 10.2449 139.627 TS 40 1000 10.3073 139.477 TC 45 10.3121 139.532 2 45 16 287
1980137N04158 1980 37 WP MM FORREST 1980-05-22 00:00:00 TS 10.5000 138.683 40 996 tokyo main 1301 1295 OOOO_____OO___ jtwc_wp WP051980 10.5000 138.800 45 0 10.6000 138.600 3 40 996 0 8 100 60 0 10.5000 138.300 2 38 999 10.4000 138.800 TS 40 1000 10.5000 138.800 TC 45 10.5000 138.800 2 45 14 284
1980137N04158 1980 37 WP MM FORREST 1980-05-22 03:00:00 TS 10.6173 138.073 main 1296 1243 PPPP_____PP___ WP051980 10.6722 138.157 45 0 10.6294 138.027 3 42 996 0 8 100 60 10.5643 137.885 2 38 999 10.5221 138.092 TS 40 1000 10.6722 138.157 TC 45 10.6438 138.118 2 45 12 279
1980137N04158 1980 37 WP MM FORREST 1980-05-22 06:00:00 TS 10.6930 137.474 45 996 tokyo main 1243 1172 OOOO_____OP___ jtwc_wp WP051980 10.8000 137.500 45 0 10.6000 137.500 3 45 996 0 8 100 60 0 10.6000 137.500 2 38 999 10.6000 137.400 TS 40 1000 10.8000 137.500 TC 45 10.7583 137.445 2 45 13 278
1980137N04158 1980 37 WP MM FORREST 1980-05-22 09:00:00 TS 10.7958 136.767 main 1172 1089 PPPP_____PP___ WP051980 10.8797 136.795 45 0 10.7497 136.818 3 45 996 0 8 100 60 10.7575 136.818 2 38 998 10.6648 136.630 TS 42 999 10.8797 136.795 TC 45 10.8437 136.749 2 45 15 277
1980137N04158 1980 37 WP MM FORREST 1980-05-22 12:00:00 TS 10.8667 135.967 45 996 tokyo main 1089 993 OOOO_____OO___ jtwc_wp WP051980 10.9000 136.000 45 0 10.9000 136.000 3 45 996 0 8 100 60 0 10.9000 136.000 2 38 998 10.7000 135.800 TS 45 998 10.9000 136.000 TC 45 10.9000 136.000 2 45 17 272
1980137N04158 1980 37 WP MM FORREST 1980-05-22 15:00:00 TS 10.8577 135.056 main 993 894 PPPP_____PP___ WP051980 10.8501 135.065 45 0 10.9228 135.007 3 45 995 0 8 100 60 10.9298 135.172 2 38 998 10.6925 134.900 TS 45 998 10.8501 135.065 TC 45 10.9008 135.128 2 45 18 269
1980137N04158 1980 37 WP MM FORREST 1980-05-22 18:00:00 TS 10.8297 134.118 45 994 tokyo main 884 798 OOOO_____OP___ jtwc_wp WP051980 10.8000 134.100 45 0 10.9000 134.000 3 45 994 0 8 100 60 0 10.9000 134.300 2 38 998 10.7000 134.000 TS 45 998 10.8000 134.100 TC 45 10.8783 134.206 2 45 18 269
1980137N04158 1980 37 WP MM FORREST 1980-05-22 21:00:00 TS 10.8313 133.235 main 787 716 PPPP_____PP___ WP051980 10.8199 133.205 45 0 10.8772 133.147 3 47 993 0 8 125 80 10.8274 133.400 2 43 998 10.7773 133.170 TS 45 998 10.8199 133.205 TC 45 10.8664 133.281 2 45 17 272
1980137N04158 1980 37 WP MM FORREST 1980-05-23 00:00:00 TS 10.8833 132.417 50 992 tokyo main 705 635 OOOO_____OO___ jtwc_wp WP051980 10.9000 132.400 45 0 10.9000 132.400 4 50 992 0 8 150 100 0 10.8000 132.500 3 48 998 10.9000 132.400 TS 45 998 10.9000 132.400 TC 45 10.9000 132.400 2 45 15 277
1980137N04158 1980 37 WP MM FORREST 1980-05-23 03:00:00 TS 11.0059 131.694 main 635 568 PPPP_____PP___ WP051980 11.0270 131.742 45 0 11.0196 131.742 4 50 992 0 8 137 100 10.9124 131.613 3 48 998 11.0422 131.692 TS 45 998 11.0270 131.742 TC 45 11.0071 131.633 2 45 14 282
1980137N04158 1980 37 WP MM FORREST 1980-05-23 06:00:00 TS 11.1776 131.002 50 992 tokyo main 568 492 OOOO_____OP___ jtwc_wp WP051980 11.2000 131.100 45 0 11.2000 131.100 4 50 992 0 8 125 100 0 11.1000 130.800 3 48 998 11.2000 131.000 TS 45 998 11.2000 131.100 TC 45 11.1658 130.912 2 45 14 284
1980137N04158 1980 37 WP MM FORREST 1980-05-23 09:00:00 TS 11.3568 130.271 main 493 418 PPPP_____PP___ WP051980 11.3850 130.322 45 0 11.3848 130.380 4 47 992 0 8 125 90 11.2845 130.135 3 48 997 11.3349 130.257 TS 45 998 11.3850 130.322 TC 45 11.3666 130.211 2 45 15 285
1980137N04158 1980 37 WP MM FORREST 1980-05-23 12:00:00 TS 11.5667 129.517 45 992 tokyo main 409 339 OOOO_____OO___ jtwc_wp WP051980 11.6000 129.500 45 0 11.6000 129.600 3 45 992 0 8 125 80 0 11.5000 129.500 3 48 996 11.5000 129.500 TS 45 998 11.6000 129.500 TC 45 11.6000 129.500 2 45 16 286
1980137N04158 1980 37 WP MM FORREST 1980-05-23 15:00:00 TS 11.8008 128.729 main 328 264 PPPP_____PP___ WP051980 11.8348 128.692 47 0 11.8349 128.765 3 45 992 0 8 125 80 11.7425 128.757 3 48 995 11.7198 128.750 TS 45 998 11.8348 128.692 TC 47 11.8381 128.715 2 47 16 288
1980137N04158 1980 37 WP MM FORREST 1980-05-23 18:00:00 TS 12.0675 127.937 45 992 tokyo main 259 185 OOOO_____OP___ jtwc_wp WP051980 12.1000 127.900 50 0 12.1000 127.900 3 45 992 0 8 125 80 0 12.0000 128.000 3 48 994 12.0000 128.000 TS 45 998 12.1000 127.900 TC 50 12.1051 127.920 2 50 16 290
1980137N04158 1980 37 WP MM FORREST 1980-05-23 21:00:00 TS 12.3506 127.156 main 186 117 PPPP_____PP___ WP051980 12.3849 127.120 52 0 12.3925 127.013 3 47 993 0 8 125 77 12.2122 127.299 3 48 993 12.3349 127.242 TS 47 996 12.3849 127.120 TC 52 12.3945 127.140 2 52 16 292
1980137N04158 1980 37 WP MM FORREST 1980-05-24 00:00:00 TS 12.6667 126.417 50 994 tokyo main 112 85 OOOO_____OO___ jtwc_wp WP051980 12.7000 126.400 55 0 12.7000 126.200 4 50 994 0 8 125 75 0 12.5000 126.600 3 48 992 12.7000 126.500 STS 50 995 12.7000 126.400 TC 55 12.7000 126.400 2 55 15 296
1980137N04158 1980 37 WP MM FORREST 1980-05-24 03:00:00 TS 13.0265 125.741 main 77 74 PPPP_____PP___ WP051980 13.0496 125.785 55 0 12.9921 125.555 4 52 994 0 8 125 100 13.0000 125.836 3 53 991 13.0574 125.770 STS 50 995 13.0496 125.785 TC 55 13.0099 125.715 2 53 15 300
1980137N04158 1980 37 WP MM FORREST 1980-05-24 06:00:00 TS 13.3890 125.112 55 994 tokyo main 82 10 OOOO_____OP___ jtwc_wp WP051980 13.4000 125.200 55 0 13.3000 125.000 4 55 994 9 50 50 9 125 125 0 13.5000 125.100 3 58 991 13.4000 125.100 STS 50 995 13.4000 125.200 TC 55 13.3341 125.075 2 52 14 299
1980137N04158 1980 37 WP MM FORREST 1980-05-24 09:00:00 TS 13.6980 124.503 main 10 0 PPPP_____PP___ WP051980 13.6999 124.550 52 0 13.6423 124.450 4 55 995 9 50 50 9 125 125 13.7722 124.469 3 58 992 13.7072 124.527 STS 50 995 13.6999 124.550 TC 52 13.6663 124.472 2 51 13 298
1980137N04158 1980 37 WP MM FORREST 1980-05-24 12:00:00 TS 14.0000 123.917 55 996 tokyo main 21 21 OOOO_____OO___ jtwc_wp WP051980 14.0000 123.900 50 0 14.0000 123.900 4 55 996 9 50 50 9 125 125 0 14.0000 123.900 3 58 994 14.0000 124.000 STS 50 995 14.0000 123.900 TC 50 14.0000 123.900 2 50 13 299
1980137N04158 1980 37 WP MM FORREST 1980-05-24 15:00:00 TS 14.3359 123.320 main 33 31 PPPP_____PP___ WP051980 14.3499 123.270 50 0 14.3651 123.278 4 50 997 9 9 125 125 14.3350 123.320 3 53 995 14.3074 123.442 STS 50 995 14.3499 123.270 TC 50 14.3081 123.341 2 48 13 301
1980137N04158 1980 37 WP MM FORREST 1980-05-24 18:00:00 TS 14.6699 122.769 45 998 tokyo main 55 55 OOOO_____OP___ jtwc_wp WP051980 14.7000 122.700 50 0 14.7000 122.700 3 45 998 0 9 125 125 0 14.7000 122.800 3 48 996 14.6000 122.900 STS 50 995 14.7000 122.700 TC 50 14.6192 122.811 2 47 12 303
1980137N04158 1980 37 WP MM FORREST 1980-05-24 21:00:00 TS 14.9720 122.300 main 72 48 PPPP_____PP___ WP051980 15.0147 122.235 47 0 14.9573 122.262 3 45 998 0 9 112 112 15.0423 122.370 3 48 996 14.8573 122.400 STS 50 995 15.0147 122.235 TC 47 14.9457 122.301 2 46 11 304
1980137N04158 1980 37 WP MM FORREST 1980-05-25 00:00:00 TS 15.2667 121.867 45 998 tokyo main 48 0 OOOO_____OO___ jtwc_wp WP051980 15.3000 121.800 45 0 15.2000 121.900 3 45 998 0 9 100 100 0 15.4000 122.000 3 48 996 15.1000 121.900 STS 50 995 15.3000 121.800 TC 45 15.3000 121.800 2 45 11 303
1980137N04158 1980 37 WP MM FORREST 1980-05-25 03:00:00 TS 15.5443 121.390 main 0 0 PPPP_____PP___ WP051980 15.5049 121.307 37 0 15.4774 121.535 3 42 999 0 9 100 100 15.8075 121.613 3 48 996 15.3271 121.394 STS 45 997 15.5049 121.307 TC 37 15.6441 121.184 2 38 11 303
1980137N04158 1980 37 WP MM FORREST 1980-05-25 06:00:00 TS 15.8706 120.915 40 1000 tokyo main 0 0 OOOO_____OP___ jtwc_wp WP051980 15.8000 120.800 30 -1 15.8000 121.200 3 40 1000 0 9 100 100 0 16.2000 121.300 3 48 996 15.6000 120.800 TS 40 1000 15.8000 120.800 TC 30 16.0235 120.592 2 32 12 308
1980137N04158 1980 37 WP MM FORREST 1980-05-25 09:00:00 TS 16.2829 120.417 main 0 0 PPPP_____PP___ WP051980 16.3253 120.226 25 -1 16.1400 120.885 3 37 1001 0 9 87 87 16.5149 121.135 3 43 996 15.9259 119.926 TS 37 1001 16.3253 120.226 TC 25 16.4660 120.104 2 26 13 318
1980137N04158 1980 37 WP MM FORREST 1980-05-25 12:00:00 TS 16.8000 120.033 35 1002 tokyo main 39 39 OOOO_____OO___ jtwc_wp WP051980 17.0000 119.800 20 -1 16.6000 120.600 3 35 1002 0 9 75 75 0 16.8000 121.000 2 38 996 16.4000 119.200 TS 35 1002 17.0000 119.800 TC 20 17.0000 119.800 6 20 13 334
1980137N04158 1980 37 WP MM FORREST 1980-05-25 15:00:00 TS 17.4282 119.844 main 57 53 PPPP_____PP___ WP051980 17.7272 119.672 20 -1 17.2401 120.305 3 35 1003 0 9 75 75 17.1075 120.765 2 38 997 17.0517 118.933 TS 35 1002 17.7272 119.672 TC 20 17.7157 119.718 6 20 14 354
1980137N04158 1980 37 WP MM FORREST 1980-05-25 18:00:00 TS 18.1456 119.888 35 1004 tokyo main 63 63 OOOO_____OP___ jtwc_wp WP051980 18.5000 119.800 20 -1 18.0000 120.100 3 35 1004 0 9 75 75 0 17.4000 120.500 2 38 998 17.9000 119.100 TS 35 1002 18.5000 119.800 TC 20 18.5124 119.831 6 20 15 8
1980137N04158 1980 37 WP MM FORREST 1980-05-25 21:00:00 TS 18.8749 120.060 main 76 76 PPPP_____PP___ WP051980 19.2875 120.075 20 -1 18.8599 120.032 3 1004 0 9 17.6201 120.220 2 30 999 18.9087 119.645 TS 32 1003 19.2875 120.075 TC 20 19.3030 120.105 6 20 14 16
1980137N04158 1980 37 WP MM FORREST 1980-05-26 00:00:00 TS 19.4444 120.294 1004 tokyo main 103 103 OOOO_____OO___ jtwc_wp WP051980 20.0000 120.500 20 -1 19.6000 120.100 2 1004 0 0 0 17.9000 120.000 1 23 1000 20.0000 120.400 TD 30 1004 20.0000 120.500 TC 20 20.0000 120.500 6 20 10 24
1980137N04158 1980 37 WP MM FORREST 1980-05-26 03:00:00 TS 19.7623 120.472 main 137 137 PPP______PP___ WP051980 20.5503 120.987 20 -1 19.9900 120.270 2 1003 0 0 18.3550 119.905 1 23 1001 TD 20.5503 120.987 TC 20 20.5457 120.978 6 20 6 26
1980137N04158 1980 37 WP MM FORREST 1980-05-26 06:00:00 TS 19.9455 120.555 1002 tokyo main 146 146 OOO______OO___ jtwc_wp WP051980 21.0000 121.500 20 -1 20.2000 120.500 2 1002 0 0 0 18.9000 119.900 1 23 1002 21.0000 121.500 TC 20 21.0000 121.500 6 20 2 318
1980137N04158 1980 37 WP MM FORREST 1980-05-26 09:00:00 TS 19.9399 120.303 main 154 154 _PP___________ WP051980 -1 20.4299 120.685 2 1002 0 0 19.4500 119.920 1 21 1002 TC 6 4 345
1980137N04158 1980 37 WP MM FORREST 1980-05-26 12:00:00 TS 20.3000 120.450 1002 tokyo main 180 145 _OO___________ -1 20.6000 120.900 2 1002 0 0 0 20.0000 120.000 0 19 1002 8 21
1980137N04158 1980 37 WP MM FORREST 1980-05-26 15:00:00 TS 20.6634 120.604 main 134 111 _PP___________ -1 20.7145 121.118 2 1003 0 0 20.6123 120.090 0 19 1002 8 41
1980137N04158 1980 37 WP MM FORREST 1980-05-26 18:00:00 MX 20.8857 120.986 1004 tokyo main 112 112 _OO___________ -1 20.8000 121.500 6 1004 0 0 0 21.0000 120.300 0 19 1002 11 79
1980137N04158 1980 37 WP MM FORREST 1980-05-26 21:00:00 MX 20.8732 121.712 main 139 139 _PP___________ -1 20.8408 122.221 6 1005 0 0 20.9380 120.696 0 19 1003 15 89
1980137N04158 1980 37 WP MM FORREST 1980-05-27 00:00:00 MX 20.9200 122.640 1006 tokyo main 208 208 _OO___________ -1 21.0000 123.000 6 1006 0 0 0 20.6000 121.200 0 19 1005 18 72
1980137N04158 1980 37 WP MM FORREST 1980-05-27 03:00:00 ET 21.4397 123.574 main 284 282 _P____________ -1 21.4397 123.574 6 1006 0 0 0 17 50
1980137N04158 1980 37 WP MM FORREST 1980-05-27 06:00:00 ET 22.0000 124.000 1006 tokyo main 293 289 _O____________ -1 22.0000 124.000 6 1006 0 0 0 13 32
1980137N04158 1980 37 WP MM FORREST 1980-05-27 09:00:00 ET 22.4997 124.288 main 304 302 _P____________ -1 22.4997 124.288 6 1006 0 0 11 25
1980137N04158 1980 37 WP MM FORREST 1980-05-27 12:00:00 ET 23.0000 124.500 1006 tokyo main 313 305 _O____________ -1 23.0000 124.500 6 1006 0 0 0 11 24
1980137N04158 1980 37 WP MM FORREST 1980-05-27 15:00:00 ET 23.4625 124.750 main 314 311 _P____________ -1 23.4625 124.750 6 1006 0 0 11 25
1980137N04158 1980 37 WP MM FORREST 1980-05-27 18:00:00 ET 24.0000 125.000 1006 tokyo main 319 317 _O____________ -1 24.0000 125.000 6 1006 0 0 0 14 19
1980137N04158 1980 37 WP MM FORREST 1980-05-27 21:00:00 ET 24.7875 125.250 main 323 323 _P____________ -1 24.7875 125.250 6 1007 0 0 16 17
1980137N04158 1980 37 WP MM FORREST 1980-05-28 00:00:00 ET 25.5000 125.500 1008 tokyo main 356 356 _O____________ -1 25.5000 125.500 6 1008 0 0 0 11 23
1980137N04158 1980 37 WP MM FORREST 1980-05-28 03:00:00 ET 25.7872 125.714 main 381 381 _P____________ -1 25.7872 125.714 6 1008 0 0 7 42
1980137N04158 1980 37 WP MM FORREST 1980-05-28 06:00:00 ET 26.0000 126.000 1008 tokyo main 416 416 _O____________ -1 26.0000 126.000 6 1008 0 0 0 8 42
1980137N04158 1980 37 WP MM FORREST 1980-05-28 09:00:00 ET 26.3850 126.317 main 457 457 _P____________ -1 26.3850 126.317 6 1008 0 0 13 42
1980137N04158 1980 37 WP MM FORREST 1980-05-28 12:00:00 ET 27.0000 127.000 1008 tokyo main 546 411 _O____________ -1 27.0000 127.000 6 1008 0 0 0 24 51
1980137N04158 1980 37 WP MM FORREST 1980-05-28 15:00:00 ET 27.9295 128.420 main 407 246 _P____________ -1 27.9295 128.420 6 1009 0 0 33 53
1980137N04158 1980 37 WP MM FORREST 1980-05-28 18:00:00 ET 29.0000 130.000 1010 tokyo main 233 115 _O____________ -1 29.0000 130.000 6 1010 0 0 0 32 47
1980137N04158 1980 37 WP MM FORREST 1980-05-28 21:00:00 ET 30.0721 131.077 main 107 65 _P____________ -1 30.0721 131.077 6 1011 0 0 27 41
1980137N04158 1980 37 WP MM FORREST 1980-05-29 00:00:00 ET 31.0000 132.000 1012 tokyo main 72 72 _O____________ -1 31.0000 132.000 6 1012 0 0 0 23 50
1980137N04158 1980 37 WP MM FORREST 1980-05-29 03:00:00 ET 31.5763 133.151 main 124 110 _P____________ -1 31.5763 133.151 6 1011 0 0 20 60
1980137N04158 1980 37 WP MM FORREST 1980-05-29 06:00:00 ET 32.0000 134.000 1010 tokyo main 122 89 _O____________ -1 32.0000 134.000 6 1010 0 0 0 13 45
1980137N04158 1980 37 WP MM FORREST 1980-05-29 09:00:00 ET 32.4741 134.201 main 78 29 _P____________ -1 32.4741 134.201 6 1011 0 0 10 1
1980137N04158 1980 37 WP MM FORREST 1980-05-29 12:00:00 ET 33.0000 134.000 1012 tokyo main 29 _O____________ -1 33.0000 134.000 6 1012 0 0 0 11 342

デジタル台風データ・検索

IBTrACS Databaseについて

本データベースは、米国NOAAが公開する1842年以降の世界の熱帯低気圧のベストトラックデータアーカイブInternational Best Track Archive for Climate Stewardship (IBTrACS)を、ウェブで閲覧しやすい形式に変換したものです。

最終更新日:2021-12-01